Time;durP1;ratioP1;P1;durP2;ratioP2;P2;SDS_P1;SDS_P2;PMS_P1;PMS_P2;Temp;Humidity;BMP_temperature;BMP_pressure;BME280_temperature;BME280_humidity;BME280_pressure;Samples;Min_cycle;Max_cycle;Signal;HPM_P1;HPM_P2
2022/01/14 00:01:44;;;;;;;;;;;24.30;50.20;;;;;;5074806;28;1098;-34
2022/01/14 00:04:11;;;;;;;;;;;24.30;50.20;;;;;;5074349;28;932;-34
2022/01/14 00:06:38;;;;;;;;;;;24.30;50.20;;;;;;5074992;28;1037;-33
2022/01/14 00:09:06;;;;;;;;;;;24.30;50.20;;;;;;5074982;28;1028;-34
2022/01/14 00:11:33;;;;;;;;;;;24.30;50.10;;;;;;5074999;28;1982;-33
2022/01/14 00:14:10;;;;;;;;;;;24.30;50.20;;;;;;5074448;28;1037;-34
2022/01/14 00:16:37;;;;;;;;;;;24.30;50.30;;;;;;5074644;28;1012;-34
2022/01/14 00:19:05;;;;;;;;;;;24.30;50.20;;;;;;5074329;28;960;-34
2022/01/14 00:21:33;;;;;;;;;;;24.20;50.30;;;;;;5074394;28;1093;-33
2022/01/14 00:24:11;;;;;;;;;;;24.20;50.30;;;;;;5075005;27;972;-33
2022/01/14 00:32:10;;;;;;;;;;;24.20;50.40;;;;;;5074824;28;2004;-34
2022/01/14 00:34:38;;;;;;;;;;;24.00;50.50;;;;;;5075526;27;1016;-34
2022/01/14 00:37:05;;;;;;;;;;;24.00;50.50;;;;;;5074751;28;964;-34
2022/01/14 00:39:32;;;;;;;;;;;24.00;50.60;;;;;;5074084;28;1003;-35
2022/01/14 00:41:59;;;;;;;;;;;24.00;50.60;;;;;;5074227;28;996;-35
2022/01/14 00:44:25;;;;;;;;;;;23.90;50.70;;;;;;5073710;28;1038;-33
2022/01/14 00:46:52;;;;;;;;;;;23.90;50.80;;;;;;5074381;28;884;-34
2022/01/14 00:49:20;;;;;;;;;;;23.90;50.80;;;;;;5077562;28;1003;-34
2022/01/14 00:51:48;;;;;;;;;;;23.80;50.80;;;;;;5078009;28;1975;-33
2022/01/14 00:54:16;;;;;;;;;;;23.80;50.80;;;;;;5078185;27;895;-34
2022/01/14 00:57:00;;;;;;;;;;;23.70;50.90;;;;;;5078067;28;992;-34
2022/01/14 00:59:26;;;;;;;;;;;23.70;51.00;;;;;;5077646;28;1040;-33
2022/01/14 01:01:53;;;;;;;;;;;23.70;51.00;;;;;;5077907;28;989;-34
2022/01/14 01:04:21;;;;;;;;;;;23.60;51.00;;;;;;5077723;28;932;-33
2022/01/14 01:06:49;;;;;;;;;;;23.70;51.10;;;;;;5077521;28;993;-33
2022/01/14 01:09:16;;;;;;;;;;;23.60;51.00;;;;;;5077799;28;1008;-33
2022/01/14 01:11:50;;;;;;;;;;;23.60;51.10;;;;;;5078149;28;1972;-33
2022/01/14 01:14:20;;;;;;;;;;;23.50;51.10;;;;;;5077474;28;935;-34
2022/01/14 01:16:47;;;;;;;;;;;23.50;51.20;;;;;;5078259;28;1150;-33
2022/01/14 01:19:14;;;;;;;;;;;23.50;51.20;;;;;;5077879;28;1050;-33
2022/01/14 01:21:41;;;;;;;;;;;23.50;51.30;;;;;;5077764;28;1153;-34
2022/01/14 01:24:11;;;;;;;;;;;23.50;51.20;;;;;;5077596;28;999;-33
2022/01/14 01:26:40;;;;;;;;;;;23.50;51.80;;;;;;5077446;28;984;-33
2022/01/14 01:29:30;;;;;;;;;;;23.40;51.30;;;;;;5077315;28;959;-34
2022/01/14 01:31:56;;;;;;;;;;;23.40;51.50;;;;;;5077573;27;1980;-33
2022/01/14 01:34:24;;;;;;;;;;;23.40;51.60;;;;;;5077118;28;936;-33
2022/01/14 01:36:52;;;;;;;;;;;23.40;51.50;;;;;;5077073;28;951;-34
2022/01/14 01:39:22;;;;;;;;;;;23.30;51.50;;;;;;5077360;28;945;-33
2022/01/14 01:41:51;;;;;;;;;;;23.30;51.50;;;;;;5077103;28;1004;-33
2022/01/14 01:44:19;;;;;;;;;;;23.30;51.60;;;;;;5076866;28;1180;-34
2022/01/14 01:46:47;;;;;;;;;;;23.30;51.70;;;;;;5077682;28;1104;-34
2022/01/14 01:49:15;;;;;;;;;;;23.30;51.50;;;;;;5077096;28;941;-34
2022/01/14 01:51:42;;;;;;;;;;;23.20;51.60;;;;;;5076758;28;1930;-33
2022/01/14 01:54:09;;;;;;;;;;;23.20;51.60;;;;;;5076840;28;999;-33
2022/01/14 01:56:37;;;;;;;;;;;23.20;51.60;;;;;;5077368;28;985;-33
2022/01/14 01:59:04;;;;;;;;;;;23.20;51.70;;;;;;5076901;28;1056;-33
2022/01/14 02:01:31;;;;;;;;;;;23.20;51.80;;;;;;5076841;28;1012;-34
2022/01/14 02:03:58;;;;;;;;;;;23.10;51.70;;;;;;5076723;28;964;-34
2022/01/14 02:06:25;;;;;;;;;;;23.10;51.80;;;;;;5077481;28;980;-32
2022/01/14 02:08:52;;;;;;;;;;;23.10;51.80;;;;;;5076763;28;940;-33
2022/01/14 02:11:19;;;;;;;;;;;23.10;51.70;;;;;;5077325;28;999;-34
2022/01/14 02:13:49;;;;;;;;;;;23.00;51.80;;;;;;5076555;28;1906;-35
2022/01/14 02:16:31;;;;;;;;;;;23.00;51.70;;;;;;5076862;28;1039;-33
2022/01/14 02:19:14;;;;;;;;;;;23.00;51.90;;;;;;5077018;27;936;-33
2022/01/14 02:24:54;;;;;;;;;;;23.00;51.90;;;;;;5076107;28;917;-33
2022/01/14 02:27:21;;;;;;;;;;;22.90;51.80;;;;;;5076669;27;928;-33
2022/01/14 02:29:48;;;;;;;;;;;23.00;51.90;;;;;;5075946;28;1063;-34
2022/01/14 02:32:14;;;;;;;;;;;22.90;51.80;;;;;;5075258;28;1976;-33
2022/01/14 02:34:41;;;;;;;;;;;22.90;51.90;;;;;;5076745;28;995;-34
2022/01/14 02:37:09;;;;;;;;;;;22.90;51.80;;;;;;5076894;28;948;-34
2022/01/14 02:39:36;;;;;;;;;;;22.90;51.90;;;;;;5076099;28;956;-34
2022/01/14 02:42:03;;;;;;;;;;;22.90;52.00;;;;;;5076260;28;2018;-33
2022/01/14 02:44:32;;;;;;;;;;;22.90;52.00;;;;;;5075831;28;1132;-33
2022/01/14 02:47:04;;;;;;;;;;;22.90;52.00;;;;;;5075960;28;1023;-34
2022/01/14 02:49:33;;;;;;;;;;;22.90;52.10;;;;;;5075876;28;1050;-33
2022/01/14 02:52:02;;;;;;;;;;;22.90;51.90;;;;;;5076172;28;1980;-34
2022/01/14 02:54:33;;;;;;;;;;;22.80;52.00;;;;;;5076061;28;952;-33
2022/01/14 02:57:02;;;;;;;;;;;22.80;52.10;;;;;;5076568;28;939;-34
2022/01/14 02:59:29;;;;;;;;;;;22.80;52.00;;;;;;5075706;28;1012;-33
2022/01/14 03:01:57;;;;;;;;;;;22.80;52.00;;;;;;5076006;28;998;-33
2022/01/14 03:04:24;;;;;;;;;;;22.80;52.00;;;;;;5075624;28;1043;-33
2022/01/14 03:06:51;;;;;;;;;;;22.80;52.10;;;;;;5075446;28;1030;-33
2022/01/14 03:09:18;;;;;;;;;;;22.80;52.00;;;;;;5075511;28;1040;-33
2022/01/14 03:11:47;;;;;;;;;;;22.80;52.00;;;;;;5075150;28;1132;-34
2022/01/14 03:14:21;;;;;;;;;;;22.70;52.00;;;;;;5076031;28;1910;-33
2022/01/14 03:16:48;;;;;;;;;;;22.70;52.00;;;;;;5076146;28;944;-33
2022/01/14 03:19:19;;;;;;;;;;;22.70;52.00;;;;;;5075795;28;932;-34
2022/01/14 03:21:46;;;;;;;;;;;22.70;52.00;;;;;;5075605;28;1086;-33
2022/01/14 03:24:22;;;;;;;;;;;22.70;52.00;;;;;;5075690;28;1071;-33
2022/01/14 03:26:52;;;;;;;;;;;22.70;52.10;;;;;;5076408;28;1014;-33
2022/01/14 03:29:19;;;;;;;;;;;22.60;52.00;;;;;;5075843;28;1043;-33
2022/01/14 03:31:46;;;;;;;;;;;22.60;52.00;;;;;;5075542;28;1003;-33
2022/01/14 03:34:13;;;;;;;;;;;22.60;52.00;;;;;;5075167;28;1898;-34
2022/01/14 03:36:40;;;;;;;;;;;22.60;52.00;;;;;;5075668;28;1081;-34
2022/01/14 03:39:07;;;;;;;;;;;22.60;52.00;;;;;;5074932;28;920;-33
2022/01/14 03:41:34;;;;;;;;;;;22.60;52.00;;;;;;5075466;28;920;-33
2022/01/14 03:44:02;;;;;;;;;;;22.60;51.90;;;;;;5074701;28;1033;-34
2022/01/14 03:46:29;;;;;;;;;;;22.60;51.90;;;;;;5075262;28;1023;-34
2022/01/14 03:48:55;;;;;;;;;;;22.60;51.80;;;;;;5074635;28;952;-33
2022/01/14 03:51:23;;;;;;;;;;;22.60;51.80;;;;;;5075447;28;992;-33
2022/01/14 03:53:50;;;;;;;;;;;22.60;51.90;;;;;;5075038;27;1908;-33
2022/01/14 03:56:17;;;;;;;;;;;22.60;52.00;;;;;;5074405;28;1000;-33
2022/01/14 03:58:44;;;;;;;;;;;22.60;51.90;;;;;;5074470;27;950;-33
2022/01/14 04:01:13;;;;;;;;;;;22.60;51.90;;;;;;5074661;28;1022;-33
2022/01/14 04:03:41;;;;;;;;;;;22.60;52.00;;;;;;5074868;28;1018;-33
2022/01/14 04:06:08;;;;;;;;;;;22.60;51.80;;;;;;5075677;28;1006;-33
2022/01/14 04:08:34;;;;;;;;;;;22.60;51.90;;;;;;5075198;28;1008;-33
2022/01/14 04:11:03;;;;;;;;;;;22.60;51.90;;;;;;5074502;28;935;-33
2022/01/14 04:13:39;;;;;;;;;;;22.60;51.60;;;;;;5074576;28;1902;-33
2022/01/14 04:16:06;;;;;;;;;;;22.60;51.60;;;;;;5074713;28;1001;-33
2022/01/14 04:18:34;;;;;;;;;;;22.60;51.60;;;;;;5074734;28;948;-33
2022/01/14 04:21:01;;;;;;;;;;;22.70;51.70;;;;;;5074861;28;984;-33
2022/01/14 04:23:28;;;;;;;;;;;22.70;51.70;;;;;;5078105;28;966;-33
2022/01/14 04:25:55;;;;;;;;;;;22.70;51.90;;;;;;5078340;28;1003;-33
2022/01/14 04:28:22;;;;;;;;;;;22.70;51.90;;;;;;5078399;28;980;-33
2022/01/14 04:30:54;;;;;;;;;;;22.70;51.80;;;;;;5078734;28;999;-33
2022/01/14 04:33:20;;;;;;;;;;;22.70;51.90;;;;;;5078153;28;1897;-33
2022/01/14 04:35:49;;;;;;;;;;;22.70;51.80;;;;;;5077807;28;995;-33
2022/01/14 04:38:15;;;;;;;;;;;22.80;51.90;;;;;;5077722;28;996;-33
2022/01/14 04:40:42;;;;;;;;;;;22.70;51.90;;;;;;5077835;28;972;-34
2022/01/14 04:43:10;;;;;;;;;;;22.80;51.80;;;;;;5077515;28;956;-33
2022/01/14 04:45:44;;;;;;;;;;;22.80;51.80;;;;;;5077243;28;1215;-33
2022/01/14 04:48:11;;;;;;;;;;;22.80;51.90;;;;;;5078330;27;1043;-33
2022/01/14 04:50:38;;;;;;;;;;;22.80;51.80;;;;;;5077282;28;964;-33
2022/01/14 04:53:08;;;;;;;;;;;22.80;51.70;;;;;;5077006;28;1906;-33
2022/01/14 04:55:35;;;;;;;;;;;22.80;51.70;;;;;;5077909;28;1013;-33
2022/01/14 04:58:01;;;;;;;;;;;22.80;51.70;;;;;;5077553;28;991;-34
2022/01/14 05:00:28;;;;;;;;;;;22.80;51.70;;;;;;5077667;28;1004;-34
2022/01/14 05:02:55;;;;;;;;;;;22.80;51.70;;;;;;5077670;28;1011;-33
2022/01/14 05:05:24;;;;;;;;;;;22.80;51.70;;;;;;5077328;28;1007;-34
2022/01/14 05:07:51;;;;;;;;;;;22.80;51.70;;;;;;5077556;28;948;-34
2022/01/14 05:10:33;;;;;;;;;;;22.80;51.70;;;;;;5077141;28;1008;-33
2022/01/14 05:13:00;;;;;;;;;;;22.80;51.60;;;;;;5077982;28;1986;-34
2022/01/14 05:15:27;;;;;;;;;;;22.90;51.60;;;;;;5077317;28;1017;-34
2022/01/14 05:17:54;;;;;;;;;;;22.90;51.10;;;;;;5077415;28;928;-34
2022/01/14 05:20:21;;;;;;;;;;;22.90;51.00;;;;;;5077172;28;1022;-34
2022/01/14 05:22:48;;;;;;;;;;;22.90;51.20;;;;;;5076746;28;943;-33
2022/01/14 05:25:15;;;;;;;;;;;22.90;51.10;;;;;;5076568;27;939;-34
2022/01/14 05:27:44;;;;;;;;;;;22.80;51.10;;;;;;5077176;28;943;-33
2022/01/14 05:30:12;;;;;;;;;;;22.90;51.10;;;;;;5077065;28;932;-34
2022/01/14 05:32:45;;;;;;;;;;;22.90;51.00;;;;;;5076842;28;1007;-35
2022/01/14 05:35:12;;;;;;;;;;;22.90;51.00;;;;;;5076200;28;1016;-33
2022/01/14 05:37:39;;;;;;;;;;;22.90;51.00;;;;;;5076326;28;1010;-34
2022/01/14 05:40:07;;;;;;;;;;;22.90;51.00;;;;;;5076534;28;1789;-33
2022/01/14 05:42:34;;;;;;;;;;;22.90;51.00;;;;;;5076179;28;932;-34
2022/01/14 05:45:02;;;;;;;;;;;22.90;51.00;;;;;;5076509;28;1855;-33
2022/01/14 05:47:28;;;;;;;;;;;22.90;51.00;;;;;;5076099;28;979;-33
2022/01/14 05:49:55;;;;;;;;;;;22.90;51.00;;;;;;5076512;28;1202;-34
2022/01/14 05:52:22;;;;;;;;;;;22.80;51.10;;;;;;5076125;28;975;-33
2022/01/14 05:54:51;;;;;;;;;;;22.80;51.00;;;;;;5075993;28;1911;-33
2022/01/14 05:57:18;;;;;;;;;;;22.80;51.00;;;;;;5075316;28;940;-33
2022/01/14 05:59:45;;;;;;;;;;;22.80;51.00;;;;;;5075619;28;1026;-33
2022/01/14 06:02:13;;;;;;;;;;;22.80;51.00;;;;;;5075859;28;896;-33
2022/01/14 06:04:40;;;;;;;;;;;22.80;51.00;;;;;;5074230;28;963;-34
2022/01/14 06:07:06;;;;;;;;;;;22.70;51.00;;;;;;5074161;28;980;-34
2022/01/14 06:09:33;;;;;;;;;;;22.80;51.00;;;;;;5074751;28;984;-33
2022/01/14 06:12:00;;;;;;;;;;;22.80;51.00;;;;;;5074853;28;1091;-33
2022/01/14 06:14:26;;;;;;;;;;;22.70;51.10;;;;;;5074236;28;1918;-33
2022/01/14 06:16:53;;;;;;;;;;;22.70;51.00;;;;;;5075109;28;987;-34
2022/01/14 06:19:23;;;;;;;;;;;22.70;51.00;;;;;;5073467;28;945;-34
2022/01/14 06:21:50;;;;;;;;;;;22.70;51.10;;;;;;5073790;27;971;-34
2022/01/14 06:24:17;;;;;;;;;;;22.70;51.20;;;;;;5073567;28;1022;-34
2022/01/14 06:26:44;;;;;;;;;;;22.70;51.10;;;;;;5073964;28;1013;-33
2022/01/14 06:29:11;;;;;;;;;;;22.70;51.10;;;;;;5073605;27;1855;-33
2022/01/14 06:31:37;;;;;;;;;;;22.70;51.20;;;;;;5074221;28;988;-33
2022/01/14 06:34:04;;;;;;;;;;;22.70;51.20;;;;;;5073894;28;1992;-34
2022/01/14 06:36:32;;;;;;;;;;;22.70;51.20;;;;;;5074484;28;984;-33
2022/01/14 06:38:59;;;;;;;;;;;22.70;51.20;;;;;;5073996;28;967;-35
2022/01/14 06:41:26;;;;;;;;;;;22.70;51.20;;;;;;5072962;28;996;-35
2022/01/14 06:43:53;;;;;;;;;;;22.70;51.20;;;;;;5073951;28;1116;-34
2022/01/14 06:46:19;;;;;;;;;;;22.60;51.20;;;;;;5073039;28;1039;-34
2022/01/14 06:48:46;;;;;;;;;;;22.60;51.10;;;;;;5074398;28;995;-34
2022/01/14 06:51:15;;;;;;;;;;;22.60;51.10;;;;;;5075814;28;980;-34
2022/01/14 06:53:43;;;;;;;;;;;22.60;51.00;;;;;;5075198;27;1878;-34
2022/01/14 06:56:11;;;;;;;;;;;22.80;51.60;;;;;;5074153;28;996;-34
2022/01/14 06:58:37;;;;;;;;;;;22.80;51.30;;;;;;5073780;28;1004;-34
2022/01/14 07:01:05;;;;;;;;;;;22.80;51.10;;;;;;5074358;28;1035;-34
2022/01/14 07:03:32;;;;;;;;;;;22.80;51.20;;;;;;5074169;28;908;-34
2022/01/14 07:05:58;;;;;;;;;;;22.70;51.30;;;;;;5075326;28;1015;-35
2022/01/14 07:08:25;;;;;;;;;;;22.70;51.40;;;;;;5074253;28;1000;-35
2022/01/14 07:10:53;;;;;;;;;;;22.80;51.50;;;;;;5074096;28;1018;-33
2022/01/14 07:13:20;;;;;;;;;;;22.80;51.50;;;;;;5073396;28;1898;-33
2022/01/14 07:15:47;;;;;;;;;;;22.80;51.50;;;;;;5074212;28;932;-33
2022/01/14 07:18:15;;;;;;;;;;;22.70;51.40;;;;;;5073277;28;976;-34
2022/01/14 07:20:42;;;;;;;;;;;22.70;51.60;;;;;;5073940;28;1039;-34
2022/01/14 07:23:09;;;;;;;;;;;22.70;51.40;;;;;;5074333;28;1015;-36
2022/01/14 07:25:37;;;;;;;;;;;22.70;51.40;;;;;;5074022;28;988;-34
2022/01/14 07:28:05;;;;;;;;;;;22.70;51.70;;;;;;5074229;27;976;-34
2022/01/14 07:30:32;;;;;;;;;;;22.70;51.00;;;;;;5073376;28;1772;-35
2022/01/14 07:32:59;;;;;;;;;;;22.70;51.10;;;;;;5073702;27;956;-35
2022/01/14 07:35:26;;;;;;;;;;;22.70;51.00;;;;;;5073472;28;1902;-34
2022/01/14 07:37:53;;;;;;;;;;;22.60;51.10;;;;;;5074434;28;940;-35
2022/01/14 07:40:19;;;;;;;;;;;22.60;51.10;;;;;;5073314;28;916;-35
2022/01/14 07:42:46;;;;;;;;;;;22.60;51.20;;;;;;5073675;28;995;-35
2022/01/14 07:45:14;;;;;;;;;;;22.60;51.10;;;;;;5074484;28;1053;-34
2022/01/14 07:47:41;;;;;;;;;;;22.70;50.90;;;;;;5074432;28;967;-34
2022/01/14 07:50:08;;;;;;;;;;;22.70;50.80;;;;;;5073053;28;953;-34
2022/01/14 07:52:35;;;;;;;;;;;22.70;50.70;;;;;;5073530;28;1027;-35
2022/01/14 07:55:01;;;;;;;;;;;22.70;50.80;;;;;;5073650;28;1980;-34
2022/01/14 07:57:28;;;;;;;;;;;22.60;50.80;;;;;;5073653;28;961;-35
2022/01/14 07:59:55;;;;;;;;;;;22.70;50.80;;;;;;5074048;28;972;-34
2022/01/14 08:02:25;;;;;;;;;;;22.60;50.70;;;;;;5073902;28;941;-35
2022/01/14 08:04:52;;;;;;;;;;;22.60;50.70;;;;;;5073161;28;1814;-35
2022/01/14 08:07:22;;;;;;;;;;;22.60;50.70;;;;;;5073788;28;980;-35
2022/01/14 08:09:49;;;;;;;;;;;22.50;50.80;;;;;;5073226;28;948;-35
2022/01/14 08:12:16;;;;;;;;;;;22.50;50.90;;;;;;5073615;28;1003;-35
2022/01/14 08:14:43;;;;;;;;;;;22.50;50.80;;;;;;5072425;28;1890;-34
2022/01/14 08:17:11;;;;;;;;;;;22.50;50.80;;;;;;5073914;28;944;-34
2022/01/14 08:19:39;;;;;;;;;;;22.50;50.90;;;;;;5072616;28;980;-34
2022/01/14 08:22:07;;;;;;;;;;;22.40;51.00;;;;;;5072484;28;980;-36
2022/01/14 08:24:34;;;;;;;;;;;22.50;51.00;;;;;;5071901;28;1003;-34
2022/01/14 08:27:01;;;;;;;;;;;22.40;51.00;;;;;;5071687;28;944;-34
2022/01/14 08:29:28;;;;;;;;;;;22.40;51.00;;;;;;5072616;28;976;-34
2022/01/14 08:31:55;;;;;;;;;;;22.40;51.00;;;;;;5072357;28;1003;-34
2022/01/14 08:34:22;;;;;;;;;;;22.40;51.10;;;;;;5071291;28;1898;-34
2022/01/14 08:36:50;;;;;;;;;;;22.40;51.10;;;;;;5072869;28;984;-34
2022/01/14 08:39:18;;;;;;;;;;;22.30;51.00;;;;;;5071351;28;1056;-34
2022/01/14 08:41:45;;;;;;;;;;;22.40;51.00;;;;;;5072426;27;1003;-35
2022/01/14 08:44:13;;;;;;;;;;;22.40;50.90;;;;;;5072541;28;1081;-34
2022/01/14 08:46:40;;;;;;;;;;;22.40;50.90;;;;;;5072454;28;1048;-35
2022/01/14 08:49:08;;;;;;;;;;;22.40;50.90;;;;;;5072289;28;948;-34
2022/01/14 08:51:36;;;;;;;;;;;22.40;50.90;;;;;;5073625;28;1011;-35
2022/01/14 08:54:05;;;;;;;;;;;22.40;50.90;;;;;;5072368;28;1971;-34
2022/01/14 08:56:32;;;;;;;;;;;22.40;51.00;;;;;;5072725;28;1037;-34
2022/01/14 08:58:59;;;;;;;;;;;22.40;50.90;;;;;;5072152;28;995;-34
2022/01/14 09:01:26;;;;;;;;;;;22.40;50.90;;;;;;5071814;28;1167;-34
2022/01/14 09:03:52;;;;;;;;;;;22.40;51.00;;;;;;5071937;28;945;-33
2022/01/14 09:06:19;;;;;;;;;;;22.40;50.90;;;;;;5071966;28;1010;-34
2022/01/14 09:08:46;;;;;;;;;;;22.40;51.00;;;;;;5072082;27;1042;-35
2022/01/14 09:11:14;;;;;;;;;;;22.40;50.90;;;;;;5074101;28;884;-34
2022/01/14 09:13:41;;;;;;;;;;;22.40;50.90;;;;;;5074715;28;964;-35
2022/01/14 09:16:08;;;;;;;;;;;22.40;51.00;;;;;;5075794;28;1902;-33
2022/01/14 09:18:35;;;;;;;;;;;22.40;51.00;;;;;;5075305;28;948;-33
2022/01/14 09:21:01;;;;;;;;;;;22.40;51.10;;;;;;5075394;28;1050;-35
2022/01/14 09:23:29;;;;;;;;;;;22.40;51.10;;;;;;5075449;28;1019;-33
2022/01/14 09:25:56;;;;;;;;;;;22.30;51.00;;;;;;5076106;28;1054;-34
2022/01/14 09:28:24;;;;;;;;;;;22.30;51.10;;;;;;5075388;28;924;-33
2022/01/14 09:30:52;;;;;;;;;;;22.30;51.10;;;;;;5075836;28;943;-34
2022/01/14 09:33:18;;;;;;;;;;;22.30;51.00;;;;;;5074831;28;1015;-32
2022/01/14 09:35:46;;;;;;;;;;;22.30;51.10;;;;;;5075924;27;1898;-34
2022/01/14 09:38:13;;;;;;;;;;;22.30;51.10;;;;;;5074634;28;995;-34
2022/01/14 09:40:42;;;;;;;;;;;22.30;51.10;;;;;;5075475;27;955;-34
2022/01/14 09:43:09;;;;;;;;;;;22.30;50.90;;;;;;5074580;28;971;-34
2022/01/14 09:45:37;;;;;;;;;;;22.30;51.00;;;;;;5075794;28;1266;-34
2022/01/14 09:48:04;;;;;;;;;;;22.30;51.00;;;;;;5075571;28;1070;-34
2022/01/14 09:50:31;;;;;;;;;;;22.30;51.10;;;;;;5075123;28;1016;-35
2022/01/14 09:52:58;;;;;;;;;;;22.30;51.00;;;;;;5075099;28;975;-34
2022/01/14 09:55:25;;;;;;;;;;;22.30;50.90;;;;;;5075163;27;1997;-34
2022/01/14 09:57:53;;;;;;;;;;;22.30;52.00;;;;;;5073256;27;2193;-35
2022/01/14 10:00:20;;;;;;;;;;;22.30;51.00;;;;;;5074702;28;983;-33
2022/01/14 10:02:49;;;;;;;;;;;22.30;50.90;;;;;;5074822;28;975;-34
2022/01/14 10:05:32;;;;;;;;;;;22.30;51.00;;;;;;5074220;27;980;-33
2022/01/14 10:08:06;;;;;;;;;;;22.30;51.10;;;;;;5074338;28;1007;-34
2022/01/14 10:10:36;;;;;;;;;;;22.30;51.10;;;;;;5074698;28;1015;-35
2022/01/14 10:13:10;;;;;;;;;;;22.30;51.00;;;;;;5073764;28;1321;-34
2022/01/14 10:15:42;;;;;;;;;;;22.30;51.00;;;;;;5073522;28;1906;-33
2022/01/14 10:18:12;;;;;;;;;;;22.30;51.00;;;;;;5074231;28;805;-34
2022/01/14 10:20:39;;;;;;;;;;;22.30;51.00;;;;;;5073914;28;952;-34
2022/01/14 10:23:05;;;;;;;;;;;22.30;51.00;;;;;;5074965;28;877;-34
2022/01/14 10:25:32;;;;;;;;;;;22.30;51.00;;;;;;5074057;28;952;-34
2022/01/14 10:27:59;;;;;;;;;;;22.30;51.10;;;;;;5073774;28;1007;-34
2022/01/14 10:30:28;;;;;;;;;;;22.30;51.10;;;;;;5075283;28;1011;-33
2022/01/14 10:32:55;;;;;;;;;;;22.30;51.10;;;;;;5074688;28;979;-34
2022/01/14 10:35:24;;;;;;;;;;;22.30;51.10;;;;;;5075268;28;1905;-35
2022/01/14 10:37:51;;;;;;;;;;;22.30;51.10;;;;;;5074807;28;995;-34
2022/01/14 10:40:19;;;;;;;;;;;22.30;51.00;;;;;;5075241;27;1007;-33
2022/01/14 10:42:46;;;;;;;;;;;22.30;51.10;;;;;;5074342;28;932;-34
2022/01/14 10:45:19;;;;;;;;;;;22.30;51.00;;;;;;5074194;28;1152;-34
2022/01/14 10:47:56;;;;;;;;;;;22.30;51.10;;;;;;5074510;28;924;-34
2022/01/14 10:50:28;;;;;;;;;;;22.30;51.00;;;;;;5070383;28;1012;-33
2022/01/14 10:52:56;;;;;;;;;;;22.30;51.10;;;;;;5073465;28;1031;-34
2022/01/14 10:55:28;;;;;;;;;;;22.30;51.00;;;;;;5073585;28;1906;-35
2022/01/14 10:57:54;;;;;;;;;;;22.30;51.00;;;;;;5072616;28;996;-34
2022/01/14 11:00:22;;;;;;;;;;;22.30;50.80;;;;;;5073760;28;1046;-34
2022/01/14 11:02:49;;;;;;;;;;;22.30;50.90;;;;;;5074272;28;1007;-33
2022/01/14 11:05:16;;;;;;;;;;;22.30;50.90;;;;;;5074210;28;997;-36
2022/01/14 11:07:46;;;;;;;;;;;22.30;50.90;;;;;;5073524;28;953;-35
2022/01/14 11:10:17;;;;;;;;;;;22.30;50.80;;;;;;5073305;28;920;-34
2022/01/14 11:12:44;;;;;;;;;;;22.30;50.90;;;;;;5073882;28;972;-34
2022/01/14 11:15:12;;;;;;;;;;;22.30;50.90;;;;;;5073525;28;1979;-34
2022/01/14 11:17:40;;;;;;;;;;;22.30;50.70;;;;;;5073367;28;964;-34
2022/01/14 11:20:08;;;;;;;;;;;22.30;50.90;;;;;;5074150;27;990;-34
2022/01/14 11:25:21;;;;;;;;;;;22.30;50.70;;;;;;5073633;28;1030;-34
2022/01/14 11:27:50;;;;;;;;;;;22.30;50.90;;;;;;5073952;28;990;-39
2022/01/14 11:30:16;;;;;;;;;;;22.30;50.80;;;;;;5073312;28;947;-34
2022/01/14 11:32:53;;;;;;;;;;;22.30;50.90;;;;;;5072573;28;996;-33
2022/01/14 11:35:20;;;;;;;;;;;22.30;50.90;;;;;;5073150;28;1934;-34
2022/01/14 11:37:47;;;;;;;;;;;22.30;50.90;;;;;;5073696;28;976;-34
2022/01/14 11:40:15;;;;;;;;;;;22.30;50.70;;;;;;5073428;28;964;-33
2022/01/14 11:42:44;;;;;;;;;;;22.30;50.70;;;;;;5073120;28;1002;-36
2022/01/14 11:45:12;;;;;;;;;;;22.30;50.80;;;;;;5072796;28;1239;-34
2022/01/14 11:48:04;;;;;;;;;;;22.30;50.80;;;;;;5072312;28;904;-34
2022/01/14 11:50:49;;;;;;;;;;;22.30;50.70;;;;;;5073298;28;992;-33
2022/01/14 11:53:36;;;;;;;;;;;22.30;50.90;;;;;;5072143;28;995;-34
2022/01/14 11:56:03;;;;;;;;;;;22.30;50.90;;;;;;5071196;28;1902;-34
2022/01/14 11:58:32;;;;;;;;;;;22.30;50.90;;;;;;5070692;28;935;-35
2022/01/14 12:00:58;;;;;;;;;;;22.30;50.70;;;;;;5069745;28;992;-33
2022/01/14 12:03:29;;;;;;;;;;;22.30;50.70;;;;;;5070885;28;1078;-34
2022/01/14 12:05:57;;;;;;;;;;;22.30;50.70;;;;;;5070565;28;1004;-34
2022/01/14 12:08:25;;;;;;;;;;;22.30;50.70;;;;;;5071631;28;953;-33
2022/01/14 12:11:07;;;;;;;;;;;22.30;50.60;;;;;;5071336;28;999;-33
2022/01/14 12:13:41;;;;;;;;;;;22.30;50.70;;;;;;5069899;27;1511;-34
2022/01/14 12:16:37;;;;;;;;;;;22.30;50.60;;;;;;5072296;28;1906;-33
2022/01/14 12:19:07;;;;;;;;;;;22.30;50.60;;;;;;5071960;28;1022;-34
2022/01/14 12:22:08;;;;;;;;;;;22.30;50.70;;;;;;5070861;28;1003;-34
2022/01/14 12:24:41;;;;;;;;;;;22.30;50.50;;;;;;5070596;28;975;-34
2022/01/14 12:27:42;;;;;;;;;;;22.30;50.60;;;;;;5071135;28;991;-35
2022/01/14 12:30:11;;;;;;;;;;;22.30;50.60;;;;;;5072740;28;1076;-33
2022/01/14 12:32:41;;;;;;;;;;;22.30;50.60;;;;;;5071805;27;1613;-35
2022/01/14 12:35:12;;;;;;;;;;;22.30;50.70;;;;;;5071270;28;1979;-35
2022/01/14 12:37:40;;;;;;;;;;;22.30;50.70;;;;;;5071969;28;944;-35
2022/01/14 12:40:09;;;;;;;;;;;22.30;50.50;;;;;;5071137;28;1166;-35
2022/01/14 12:42:36;;;;;;;;;;;22.30;50.60;;;;;;5070485;28;936;-35
2022/01/14 12:45:05;;;;;;;;;;;22.30;50.40;;;;;;5073157;28;1180;-33
2022/01/14 12:47:38;;;;;;;;;;;22.30;50.50;;;;;;5074684;28;987;-35
2022/01/14 12:50:05;;;;;;;;;;;22.30;50.60;;;;;;5074045;27;907;-35
2022/01/14 12:52:38;;;;;;;;;;;22.30;50.60;;;;;;5074177;28;916;-33
2022/01/14 12:55:05;;;;;;;;;;;22.30;50.60;;;;;;5074619;28;2064;-33
2022/01/14 12:57:32;;;;;;;;;;;22.30;50.50;;;;;;5072985;28;979;-34
2022/01/14 12:59:59;;;;;;;;;;;22.30;50.60;;;;;;5073933;28;987;-33
2022/01/14 13:02:28;;;;;;;;;;;22.30;50.50;;;;;;5074352;28;916;-34
2022/01/14 13:05:07;;;;;;;;;;;22.30;50.40;;;;;;5075215;28;996;-33
2022/01/14 13:07:35;;;;;;;;;;;22.30;50.50;;;;;;5074788;28;995;-36
2022/01/14 13:10:02;;;;;;;;;;;22.30;50.40;;;;;;5074388;28;988;-34
2022/01/14 13:12:33;;;;;;;;;;;22.30;50.40;;;;;;5074103;28;989;-34
2022/01/14 13:15:02;;;;;;;;;;;22.30;50.40;;;;;;5074649;27;1377;-34
2022/01/14 13:17:30;;;;;;;;;;;22.30;50.30;;;;;;5075509;28;1906;-33
2022/01/14 13:19:57;;;;;;;;;;;22.30;50.50;;;;;;5074597;28;972;-34
2022/01/14 13:22:26;;;;;;;;;;;22.30;50.40;;;;;;5073304;28;1016;-35
2022/01/14 13:24:54;;;;;;;;;;;22.30;50.40;;;;;;5074888;28;933;-34
2022/01/14 13:27:22;;;;;;;;;;;22.30;50.50;;;;;;5073425;28;849;-35
2022/01/14 13:29:50;;;;;;;;;;;22.30;50.40;;;;;;5073551;28;997;-34
2022/01/14 13:32:17;;;;;;;;;;;22.30;50.40;;;;;;5073424;28;979;-34
2022/01/14 13:34:45;;;;;;;;;;;22.30;50.40;;;;;;5073662;28;881;-34
2022/01/14 13:37:12;;;;;;;;;;;22.30;50.40;;;;;;5072949;28;1909;-34
2022/01/14 13:39:40;;;;;;;;;;;22.30;50.40;;;;;;5073958;27;942;-35
2022/01/14 13:42:21;;;;;;;;;;;22.30;50.40;;;;;;5073118;28;1007;-36
2022/01/14 13:44:47;;;;;;;;;;;22.30;50.40;;;;;;5073904;28;1188;-36
2022/01/14 13:47:19;;;;;;;;;;;22.30;51.50;;;;;;5073140;28;995;-35
2022/01/14 13:49:46;;;;;;;;;;;22.30;50.30;;;;;;5072908;28;1028;-35
2022/01/14 13:52:14;;;;;;;;;;;22.30;50.40;;;;;;5074788;28;995;-34
2022/01/14 13:54:42;;;;;;;;;;;22.30;50.40;;;;;;5074941;27;975;-35
2022/01/14 13:57:10;;;;;;;;;;;22.30;50.30;;;;;;5073351;28;1909;-36
2022/01/14 13:59:37;;;;;;;;;;;22.20;50.30;;;;;;5074357;28;991;-34
2022/01/14 14:02:06;;;;;;;;;;;22.30;50.40;;;;;;5073984;28;1023;-34
2022/01/14 14:04:37;;;;;;;;;;;22.20;50.30;;;;;;5072794;28;916;-35
2022/01/14 14:07:07;;;;;;;;;;;22.30;50.50;;;;;;5074128;28;948;-34
2022/01/14 14:09:41;;;;;;;;;;;22.30;50.40;;;;;;5075665;27;1010;-32
2022/01/14 14:12:41;;;;;;;;;;;22.20;50.30;;;;;;5073690;28;1060;-32
2022/01/14 14:18:04;;;;;;;;;;;22.30;50.40;;;;;;5074633;28;649;-32
2022/01/14 14:20:30;;;;;;;;;;;22.20;50.40;;;;;;5074897;28;967;-32
2022/01/14 14:22:57;;;;;;;;;;;22.30;50.30;;;;;;5074505;28;972;-36
2022/01/14 14:25:26;;;;;;;;;;;22.30;50.20;;;;;;5075132;28;948;-35
2022/01/14 14:27:55;;;;;;;;;;;22.30;50.30;;;;;;5074046;28;900;-36
2022/01/14 14:30:23;;;;;;;;;;;22.20;50.20;;;;;;5075692;28;924;-35
2022/01/14 14:32:50;;;;;;;;;;;22.20;50.30;;;;;;5075459;28;876;-37
2022/01/14 14:35:17;;;;;;;;;;;22.20;50.30;;;;;;5076279;28;943;-35
2022/01/14 14:37:47;;;;;;;;;;;22.30;50.20;;;;;;5074252;28;1973;-36
2022/01/14 14:40:17;;;;;;;;;;;22.30;50.30;;;;;;5074204;28;944;-36
2022/01/14 14:42:45;;;;;;;;;;;22.20;50.30;;;;;;5073513;28;948;-35
2022/01/14 14:45:13;;;;;;;;;;;22.20;50.30;;;;;;5074991;28;1027;-34
2022/01/14 14:47:40;;;;;;;;;;;22.20;50.20;;;;;;5075058;28;952;-35
2022/01/14 14:50:08;;;;;;;;;;;22.30;50.30;;;;;;5074512;28;983;-35
2022/01/14 14:52:35;;;;;;;;;;;22.30;50.30;;;;;;5074087;28;988;-35
2022/01/14 14:55:01;;;;;;;;;;;22.30;50.30;;;;;;5074169;28;1003;-35
2022/01/14 14:57:29;;;;;;;;;;;22.20;50.30;;;;;;5072942;28;1898;-36
2022/01/14 14:59:55;;;;;;;;;;;22.20;50.20;;;;;;5073956;27;995;-34